Time;durP1;ratioP1;P1;durP2;ratioP2;P2;SDS_P1;SDS_P2;PMS_P1;PMS_P2;Temp;Humidity;BMP_temperature;BMP_pressure;BME280_temperature;BME280_humidity;BME280_pressure;Samples;Min_cycle;Max_cycle;Signal;HPM_P1;HPM_P2
2022/12/21 05:08:58;;;;;;;29.48;17.12;;;;;;;5.48;65.66;101153.72;5606095;31;82203;-54
2022/12/21 05:12:01;;;;;;;27.20;16.17;;;;;;;5.48;65.66;101153.72;5583653;31;34051;-54
2022/12/21 05:15:03;;;;;;;30.45;18.37;;;;;;;4.99;72.62;101153.78;5583682;31;33584;-54
2022/12/21 05:18:06;;;;;;;28.02;16.87;;;;;;;4.84;60.43;101156.03;5583628;31;33655;-54
2022/12/21 05:21:08;;;;;;;28.40;16.62;;;;;;;4.85;70.70;101165.59;5583298;31;33887;-54
2022/12/21 05:24:11;;;;;;;29.00;17.20;;;;;;;4.88;66.15;101157.19;5584324;31;33532;-55
2022/12/21 05:27:13;;;;;;;29.15;17.00;;;;;;;4.82;82.07;101150.91;5583287;31;34279;-54
2022/12/21 05:30:16;;;;;;;28.42;16.15;;;;;;;5.29;87.30;101158.28;5595026;31;33489;-54
2022/12/21 05:33:18;;;;;;;29.30;17.80;;;;;;;5.27;64.70;101145.22;5601178;31;33581;-54
2022/12/21 05:36:21;;;;;;;29.70;17.87;;;;;;;5.36;72.82;101143.88;5602644;31;33869;-54
2022/12/21 05:39:23;;;;;;;31.20;18.58;;;;;;;5.33;84.32;101148.81;5602874;31;33634;-53
2022/12/21 05:42:25;;;;;;;31.80;17.40;;;;;;;5.53;76.58;101151.19;5603094;31;34297;-54
2022/12/21 05:45:27;;;;;;;26.33;16.87;;;;;;;5.21;68.26;101153.31;5586781;31;34252;-54
2022/12/21 05:48:30;;;;;;;26.37;17.08;;;;;;;5.46;81.89;101150.47;5583210;32;33663;-54
2022/12/21 05:51:32;;;;;;;27.90;17.75;;;;;;;5.28;83.15;101164.66;5583051;32;33572;-54
2022/12/21 05:54:35;;;;;;;29.48;17.62;;;;;;;5.75;74.87;101157.59;5591270;31;34290;-54
2022/12/21 05:57:37;;;;;;;28.87;17.87;;;;;;;5.44;84.16;101150.72;5602697;31;33988;-54
2022/12/21 06:00:40;;;;;;;28.38;17.98;;;;;;;5.62;60.72;101153.28;5602012;31;33368;-54
2022/12/21 06:03:43;;;;;;;30.02;18.35;;;;;;;5.70;85.12;101144.19;5598498;31;33707;-54
2022/12/21 06:06:46;;;;;;;29.15;18.33;;;;;;;5.50;77.53;101138.37;5582474;32;33680;-54
2022/12/21 06:09:49;;;;;;;34.22;18.73;;;;;;;5.50;81.01;101141.03;5582892;31;33698;-54
2022/12/21 06:12:51;;;;;;;33.13;19.25;;;;;;;5.45;63.04;101138.22;5582759;31;33662;-54
2022/12/21 06:15:53;;;;;;;36.08;19.67;;;;;;;5.38;65.90;101144.44;5599931;31;33920;-53
2022/12/21 06:18:56;;;;;;;29.60;18.42;;;;;;;5.36;71.90;101154.53;5595622;31;34312;-53
2022/12/21 06:21:58;;;;;;;31.62;19.08;;;;;;;5.57;81.57;101144.41;5588878;31;33118;-54
2022/12/21 06:25:02;;;;;;;34.03;19.08;;;;;;;5.44;74.97;101156.03;5576676;31;33639;-54
2022/12/21 06:28:04;;;;;;;31.35;20.15;;;;;;;5.58;78.18;101160.09;5569526;32;33604;-54
2022/12/21 06:31:10;;;;;;;33.63;20.67;;;;;;;5.63;76.37;101149.63;5568568;32;34159;-53
2022/12/21 06:34:13;;;;;;;36.20;20.67;;;;;;;5.50;76.21;101154.31;5575379;31;33249;-54
2022/12/21 06:37:15;;;;;;;31.83;19.02;;;;;;;5.34;66.24;101147.78;5578426;31;34289;-54
2022/12/21 06:40:17;;;;;;;33.80;20.65;;;;;;;5.34;67.04;101156.59;5568203;31;34382;-54
2022/12/21 06:43:20;;;;;;;33.53;20.98;;;;;;;5.28;69.64;101146.84;5565846;32;34384;-54
2022/12/21 06:46:22;;;;;;;43.30;19.90;;;;;;;4.98;60.66;101144.19;5564664;32;34226;-53
2022/12/21 06:49:24;;;;;;;34.58;20.42;;;;;;;5.21;68.42;101134.69;5564043;32;33157;-54
2022/12/21 06:52:27;;;;;;;32.85;19.50;;;;;;;5.46;70.47;101129.19;5561778;32;33640;-54
2022/12/21 06:55:29;;;;;;;33.20;20.40;;;;;;;5.40;78.18;101133.59;5564946;32;33656;-54
2022/12/21 06:58:32;;;;;;;33.60;20.88;;;;;;;5.09;66.00;101132.78;5561446;32;34265;-54
2022/12/21 07:01:35;;;;;;;33.92;21.48;;;;;;;4.94;67.11;101119.09;5552860;32;34180;-55
2022/12/21 07:04:38;;;;;;;33.55;20.30;;;;;;;5.06;63.13;101140.41;5568037;32;34036;-54
2022/12/21 07:07:40;;;;;;;33.30;21.23;;;;;;;4.71;72.95;101128.56;5568124;32;34434;-54
2022/12/21 07:10:43;;;;;;;32.95;20.80;;;;;;;5.05;74.01;101118.31;5558112;32;33634;-54
2022/12/21 07:13:47;;;;;;;39.15;20.48;;;;;;;5.13;73.34;101133.13;5548562;32;34383;-55
2022/12/21 07:16:49;;;;;;;36.45;22.50;;;;;;;4.98;74.21;101130.09;5548537;32;34364;-54
2022/12/21 07:19:52;;;;;;;33.67;21.05;;;;;;;5.18;75.54;101146.56;5560464;32;34377;-55
2022/12/21 07:22:54;;;;;;;33.58;21.02;;;;;;;5.35;82.53;101141.44;5568040;32;34477;-53
2022/12/21 07:25:56;;;;;;;36.63;22.90;;;;;;;5.47;83.64;101128.19;5568701;32;33598;-54
2022/12/21 07:29:03;;;;;;;;;;;;;;;5.63;75.66;101125.66;5555945;32;34410;-54
2022/12/21 07:32:05;;;;;;;41.28;24.12;;;;;;;5.48;65.61;101129.78;5552628;32;34156;-54
2022/12/21 07:35:08;;;;;;;34.47;21.80;;;;;;;5.34;64.32;101129.19;5548308;32;34532;-54
2022/12/21 07:38:11;;;;;;;38.78;23.23;;;;;;;5.00;71.74;101136.81;5548525;32;33694;-54
2022/12/21 07:41:15;;;;;;;37.80;22.60;;;;;;;4.94;66.79;101135.84;5548988;32;33609;-53
2022/12/21 07:44:18;;;;;;;35.92;23.00;;;;;;;5.13;66.42;101133.13;5552928;32;34343;-54
2022/12/21 07:47:26;;;;;;;36.83;23.02;;;;;;;5.60;78.88;101139.44;5563665;32;33376;-54
2022/12/21 07:50:28;;;;;;;40.35;23.87;;;;;;;5.65;84.32;101136.06;5579730;31;33746;-54
2022/12/21 07:53:31;;;;;;;35.60;23.02;;;;;;;5.85;88.82;101128.56;5549456;31;34322;-55
2022/12/21 07:56:33;;;;;;;37.88;22.83;;;;;;;5.72;66.02;101126.13;5548489;32;34557;-54
2022/12/21 07:59:35;;;;;;;37.85;24.23;;;;;;;6.09;83.90;101120.63;5569449;31;34025;-55
2022/12/21 08:02:38;;;;;;;35.85;23.95;;;;;;;6.03;75.16;101121.56;5566374;31;34196;-54
2022/12/21 08:05:40;;;;;;;36.45;23.80;;;;;;;5.63;65.66;101120.34;5565633;32;33570;-54
2022/12/21 08:08:42;;;;;;;41.55;25.55;;;;;;;5.75;81.81;101114.22;5563924;32;33653;-54
2022/12/21 08:11:46;;;;;;;38.30;24.55;;;;;;;5.75;68.07;101109.72;5548284;32;33721;-54
2022/12/21 08:14:48;;;;;;;40.38;25.58;;;;;;;5.81;74.77;101121.28;5548098;32;34129;-54
2022/12/21 08:17:51;;;;;;;39.85;25.35;;;;;;;5.65;69.06;101120.91;5563084;32;33588;-54
2022/12/21 08:20:55;;;;;;;42.10;25.33;;;;;;;5.29;61.08;101107.78;5567372;32;33657;-54
2022/12/21 08:23:57;;;;;;;49.05;25.10;;;;;;;5.57;89.37;101118.59;5558843;32;33639;-55
2022/12/21 08:27:00;;;;;;;35.25;24.30;;;;;;;5.89;73.56;101112.94;5553389;32;33186;-54
2022/12/21 08:30:03;;;;;;;49.92;29.83;;;;;;;5.81;82.85;101108.00;5556855;32;34850;-54
2022/12/21 08:33:06;;;;;;;42.42;25.48;;;;;;;5.53;71.51;101111.28;5560785;32;33693;-55
2022/12/21 08:36:10;;;;;;;46.53;29.77;;;;;;;6.13;84.21;101100.50;5557099;32;34273;-55
2022/12/21 08:39:13;;;;;;;38.53;25.17;;;;;;;5.63;65.78;101117.69;5565509;32;33747;-54
2022/12/21 08:42:15;;;;;;;42.45;26.55;;;;;;;5.47;70.03;101112.22;5559873;32;33533;-54
2022/12/21 08:45:18;;;;;;;42.20;27.45;;;;;;;5.54;77.85;101115.59;5558409;32;33661;-53
2022/12/21 08:48:20;;;;;;;42.30;27.37;;;;;;;5.63;71.07;101117.69;5559932;32;34307;-54
2022/12/21 08:51:31;;;;;;;36.95;25.55;;;;;;;5.63;77.08;101115.03;5546855;32;33719;-54
2022/12/21 08:54:34;;;;;;;40.83;27.13;;;;;;;5.80;82.60;101103.72;5554710;31;33609;-57
2022/12/21 08:57:37;;;;;;;40.30;27.25;;;;;;;5.96;80.01;101103.06;5564163;31;33356;-54
2022/12/21 09:00:39;;;;;;;45.00;28.20;;;;;;;5.80;75.35;101104.53;5564490;32;33624;-54
2022/12/21 09:03:42;;;;;;;42.47;27.23;;;;;;;5.98;85.11;101100.16;5560167;32;33707;-55
2022/12/21 09:06:44;;;;;;;44.63;28.67;;;;;;;5.97;84.21;101088.69;5549214;32;34270;-54
2022/12/21 09:09:47;;;;;;;40.22;26.65;;;;;;;5.86;68.56;101100.94;5558323;31;34376;-54
2022/12/21 09:12:49;;;;;;;42.62;28.02;;;;;;;5.42;59.89;101102.25;5567164;32;33961;-54
2022/12/21 09:15:51;;;;;;;38.30;25.35;;;;;;;5.57;66.34;101104.50;5555537;32;34168;-54
2022/12/21 09:18:54;;;;;;;48.15;29.75;;;;;;;6.17;95.41;101092.88;5549472;32;33727;-54
2022/12/21 09:21:58;;;;;;;44.03;28.48;;;;;;;6.02;66.87;101096.78;5548187;32;33719;-54
2022/12/21 09:25:01;;;;;;;41.75;26.55;;;;;;;5.87;74.26;101086.59;5550412;32;33874;-54
2022/12/21 09:28:04;;;;;;;42.15;28.00;;;;;;;6.25;76.58;101087.97;5565698;32;33269;-54
2022/12/21 09:31:08;;;;;;;42.95;27.58;;;;;;;6.27;69.02;101071.78;5553700;32;33616;-54
2022/12/21 09:34:11;;;;;;;45.90;28.12;;;;;;;6.10;72.68;101072.50;5547399;32;33639;-54
2022/12/21 09:37:13;;;;;;;43.83;28.60;;;;;;;6.25;64.59;101071.19;5552110;32;33565;-54
2022/12/21 09:40:25;;;;;;;44.13;28.52;;;;;;;6.11;62.01;101055.47;5551195;32;34353;-53
2022/12/21 09:43:59;;;;;;;47.47;29.37;;;;;;;6.08;70.54;101049.81;5554824;31;33836;-53
2022/12/21 09:47:04;;;;;;;43.92;28.30;;;;;;;5.85;79.91;101043.44;5550495;32;33869;-54
2022/12/21 09:50:30;;;;;;;46.33;28.92;;;;;;;5.98;71.48;101045.06;5558818;32;33663;-54
2022/12/21 09:53:37;;;;;;;42.28;27.70;;;;;;;5.82;62.18;101048.41;5560855;32;33717;-54
2022/12/21 09:56:43;;;;;;;42.22;28.27;;;;;;;5.92;68.66;101045.97;5557474;32;33663;-54
2022/12/21 09:59:45;;;;;;;43.53;28.85;;;;;;;5.95;66.52;101047.37;5551190;32;33624;-54
2022/12/21 10:03:29;;;;;;;44.80;28.08;;;;;;;5.88;64.29;101039.50;5565708;31;33273;-54
2022/12/21 10:06:37;;;;;;;44.55;28.20;;;;;;;5.73;60.12;101041.81;5548969;32;33457;-54
2022/12/21 10:09:51;;;;;;;41.63;28.58;;;;;;;5.36;70.61;101039.34;5561693;31;33698;-54
2022/12/21 10:13:25;;;;;;;44.05;28.67;;;;;;;5.43;77.80;101050.72;5573256;31;33573;-54
2022/12/21 10:16:43;;;;;;;46.22;28.35;;;;;;;5.66;60.94;101039.25;5570110;31;34597;-54
2022/12/21 10:20:41;;;;;;;45.08;27.87;;;;;;;5.31;64.21;101034.72;5569541;32;34478;-54
2022/12/21 10:23:49;;;;;;;43.50;28.42;;;;;;;5.72;72.27;101035.69;5569889;31;33664;-54
2022/12/21 10:26:58;;;;;;;42.75;26.25;;;;;;;6.02;80.27;101029.44;5578407;31;33310;-54
2022/12/21 10:30:00;;;;;;;44.30;27.55;;;;;;;6.27;69.25;101022.00;5573316;31;33703;-54
2022/12/21 10:33:03;;;;;;;43.38;28.23;;;;;;;6.02;61.56;101030.25;5556292;32;33352;-55
2022/12/21 10:36:06;;;;;;;41.92;28.35;;;;;;;6.14;81.13;101024.91;5562468;32;33479;-54
2022/12/21 10:39:13;;;;;;;42.53;27.15;;;;;;;6.06;60.86;101022.59;5565097;31;33379;-54
2022/12/21 10:42:23;;;;;;;39.65;25.62;;;;;;;5.86;70.22;101029.09;5560560;32;34354;-54
2022/12/21 10:45:25;;;;;;;39.35;26.77;;;;;;;6.00;87.18;101023.56;5575382;31;33675;-54
2022/12/21 10:48:29;;;;;;;40.63;26.62;;;;;;;5.98;84.00;101004.34;5560851;31;34328;-53
2022/12/21 10:51:33;;;;;;;40.00;27.05;;;;;;;6.01;73.71;101001.22;5568324;31;34356;-53
2022/12/21 10:54:35;;;;;;;43.85;26.33;;;;;;;6.04;78.92;101004.22;5566346;32;33825;-54
2022/12/21 10:57:38;;;;;;;42.70;28.50;;;;;;;6.26;79.34;100993.75;5565607;32;33606;-53
2022/12/21 11:00:49;;;;;;;44.17;27.75;;;;;;;5.81;64.42;100988.25;5552534;32;34364;-54
2022/12/21 11:04:26;;;;;;;42.83;27.83;;;;;;;5.75;70.31;100999.81;5563238;31;33344;-54
2022/12/21 11:07:30;;;;;;;45.65;27.45;;;;;;;5.86;69.50;100978.53;5557839;31;34360;-54
2022/12/21 11:11:03;;;;;;;46.47;29.05;;;;;;;6.05;60.35;100979.22;5567195;31;33566;-54
2022/12/21 11:14:15;;;;;;;46.13;29.50;;;;;;;5.84;61.18;100974.50;5566465;31;31947;-54
2022/12/21 11:17:43;;;;;;;46.05;30.25;;;;;;;5.75;65.53;100970.56;5557675;31;33845;-54
2022/12/21 11:20:48;;;;;;;46.25;28.08;;;;;;;6.05;62.32;100959.78;5562029;31;33792;-55
2022/12/21 11:24:12;;;;;;;41.90;28.20;;;;;;;6.03;69.96;100961.88;5559471;31;33362;-54
2022/12/21 11:27:30;;;;;;;44.83;28.73;;;;;;;5.97;76.44;100963.63;5556437;31;33740;-54
2022/12/21 11:30:38;;;;;;;42.05;27.83;;;;;;;6.28;70.43;100959.69;5556266;31;32208;-54
2022/12/21 11:33:44;;;;;;;43.83;28.65;;;;;;;5.95;63.22;100960.38;5563787;31;33659;-54
2022/12/21 11:36:54;;;;;;;;;;;;;;;6.09;69.45;100959.09;5555803;31;33751;-53
2022/12/21 11:40:06;;;;;;;45.65;29.50;;;;;;;6.14;62.78;100952.25;5549195;32;34698;-54
2022/12/21 11:43:16;;;;;;;44.97;28.48;;;;;;;5.93;62.00;100956.31;5564135;31;33753;-54
2022/12/21 11:46:45;;;;;;;43.00;27.52;;;;;;;6.32;81.21;100949.37;5565682;31;33780;-55
2022/12/21 11:50:07;;;;;;;44.50;27.85;;;;;;;6.41;80.47;100947.16;5560036;31;33751;-54
2022/12/21 11:53:23;;;;;;;41.78;27.20;;;;;;;6.32;74.49;100939.56;5558164;31;33502;-54
2022/12/21 11:56:41;;;;;;;47.38;28.65;;;;;;;6.58;80.69;100940.81;5567400;31;33712;-54
2022/12/21 12:00:06;;;;;;;44.10;27.98;;;;;;;6.39;64.20;100939.41;5560479;31;33730;-54
2022/12/21 12:03:58;;;;;;;42.10;28.38;;;;;;;6.16;62.23;100929.66;5567266;31;33459;-54
2022/12/21 12:07:18;;;;;;;42.05;28.50;;;;;;;6.26;68.68;100919.22;5558952;31;33772;-55
2022/12/21 12:10:24;;;;;;;41.17;26.98;;;;;;;6.09;80.27;100928.97;5564916;31;33691;-54
2022/12/21 12:13:50;;;;;;;44.33;28.52;;;;;;;6.27;80.71;100920.81;5562219;31;34056;-54
2022/12/21 12:17:05;;;;;;;44.50;28.58;;;;;;;5.71;63.01;100921.53;5559292;31;33469;-54
2022/12/21 12:20:32;;;;;;;41.88;27.30;;;;;;;6.05;67.99;100910.00;5557678;31;33633;-53
2022/12/21 12:23:54;;;;;;;38.38;27.13;;;;;;;5.70;72.62;100909.28;5559075;32;33594;-55
2022/12/21 12:27:24;;;;;;;41.40;26.90;;;;;;;5.99;66.26;100913.59;5560732;31;34838;-54
2022/12/21 12:30:43;;;;;;;42.13;26.98;;;;;;;6.28;84.97;100913.62;5563863;31;35300;-55
2022/12/21 12:34:19;;;;;;;42.90;28.40;;;;;;;6.31;84.95;100903.31;5562962;31;33605;-56
2022/12/21 12:37:40;;;;;;;42.92;26.95;;;;;;;6.14;72.77;100902.47;5555209;31;33321;-54
2022/12/21 12:41:21;;;;;;;40.67;26.90;;;;;;;6.26;79.41;100902.44;5562602;31;33671;-53
2022/12/21 12:44:52;;;;;;;41.20;26.77;;;;;;;6.33;68.79;100903.88;5550185;31;34189;-54
2022/12/21 12:48:14;;;;;;;44.05;29.12;;;;;;;6.11;68.43;100908.25;5560558;31;33650;-54
2022/12/21 12:51:39;;;;;;;41.92;28.30;;;;;;;5.96;69.48;100900.81;5563915;31;33627;-55
2022/12/21 12:54:59;;;;;;;44.15;28.77;;;;;;;6.29;76.83;100910.75;5556793;31;33747;-55
2022/12/21 12:58:53;;;;;;;45.42;27.90;;;;;;;6.28;79.61;100902.97;5573185;31;33737;-54
2022/12/21 13:02:16;;;;;;;48.03;30.55;;;;;;;5.94;78.35;100904.75;5554427;31;33653;-54
2022/12/21 13:05:24;;;;;;;44.58;29.42;;;;;;;5.67;65.98;100902.59;5567535;32;34302;-54
2022/12/21 13:08:54;;;;;;;44.72;28.67;;;;;;;5.45;62.33;100899.72;5556399;32;33448;-54
2022/12/21 13:12:23;;;;;;;42.95;29.30;;;;;;;5.67;76.18;100902.59;5555685;32;33871;-55
2022/12/21 13:15:33;;;;;;;44.65;29.05;;;;;;;5.67;64.57;100907.09;5552796;32;33527;-54
2022/12/21 13:18:41;;;;;;;43.10;29.30;;;;;;;5.36;71.61;100901.09;5566398;32;34381;-54
2022/12/21 13:21:45;;;;;;;44.72;28.92;;;;;;;5.42;64.52;100906.28;5568150;32;34332;-54
2022/12/21 13:24:54;;;;;;;47.92;31.50;;;;;;;5.65;82.50;100905.47;5567976;32;34437;-54
2022/12/21 13:27:58;;;;;;;42.13;28.80;;;;;;;6.10;74.79;100906.66;5567988;32;34469;-54
2022/12/21 13:31:06;;;;;;;47.75;30.35;;;;;;;6.11;67.53;100902.94;5570229;32;33919;-54
2022/12/21 13:34:23;;;;;;;43.17;29.45;;;;;;;5.85;61.17;100902.41;5570174;32;33682;-55
2022/12/21 13:37:26;;;;;;;44.83;27.45;;;;;;;5.84;73.18;100906.12;5570011;32;35257;-54
2022/12/21 13:40:42;;;;;;;43.97;28.80;;;;;;;6.00;83.46;100904.59;5569997;32;33250;-54
2022/12/21 13:43:51;;;;;;;49.65;29.25;;;;;;;6.03;75.91;100900.66;5570118;32;33805;-54
2022/12/21 13:47:15;;;;;;;42.17;27.75;;;;;;;5.91;73.90;100902.50;5570400;32;33667;-54
2022/12/21 13:50:36;;;;;;;46.92;28.85;;;;;;;5.89;75.56;100895.59;5570296;32;33621;-54
2022/12/21 13:54:12;;;;;;;44.40;28.83;;;;;;;5.97;73.43;100881.13;5570165;32;33666;-54
2022/12/21 13:57:39;;;;;;;44.42;28.90;;;;;;;5.96;84.90;100882.19;5570049;32;33603;-53
2022/12/21 14:00:51;;;;;;;46.08;30.60;;;;;;;5.95;79.91;100883.19;5570048;32;33416;-54
2022/12/21 14:04:05;;;;;;;49.83;29.50;;;;;;;5.85;68.70;100881.13;5570051;32;34338;-54
2022/12/21 14:07:19;;;;;;;45.47;29.02;;;;;;;5.55;65.31;100876.00;5569919;32;33481;-54
2022/12/21 14:10:31;;;;;;;44.10;29.40;;;;;;;5.67;79.87;100869.84;5570285;32;33677;-54
2022/12/21 14:13:44;;;;;;;46.58;30.73;;;;;;;5.72;66.21;100857.44;5570051;32;33697;-54
2022/12/21 14:16:56;;;;;;;50.35;32.60;;;;;;;5.99;70.23;100863.03;5569980;32;34409;-54
2022/12/21 14:20:07;;;;;;;44.53;29.60;;;;;;;6.09;68.74;100860.59;5569614;32;33857;-53
2022/12/21 14:23:25;;;;;;;48.05;30.08;;;;;;;5.78;74.92;100856.50;5569726;32;33721;-53
2022/12/21 14:26:37;;;;;;;47.00;31.55;;;;;;;5.96;77.95;100841.44;5569825;32;33754;-54
2022/12/21 14:29:41;;;;;;;45.10;30.02;;;;;;;5.83;63.44;100853.16;5569456;32;33771;-53
2022/12/21 14:32:51;;;;;;;49.10;31.33;;;;;;;5.78;81.04;100853.03;5569546;32;33428;-53
2022/12/21 14:36:28;;;;;;;48.87;31.35;;;;;;;5.83;64.92;100858.47;5569652;32;34503;-53
2022/12/21 14:39:35;;;;;;;46.80;31.15;;;;;;;5.68;71.27;100864.28;5551377;31;33370;-54
2022/12/21 14:42:42;;;;;;;50.95;31.58;;;;;;;5.78;81.65;100869.81;5568643;32;34379;-54
2022/12/21 14:45:47;;;;;;;45.78;31.23;;;;;;;5.80;66.58;100872.25;5569537;32;33787;-54
2022/12/21 14:49:01;;;;;;;50.17;31.65;;;;;;;5.79;66.53;100883.91;5568484;32;34339;-55
2022/12/21 14:52:29;;;;;;;48.17;31.50;;;;;;;5.74;63.11;100889.16;5568484;32;33633;-54
2022/12/21 14:55:42;;;;;;;45.25;31.48;;;;;;;5.51;64.75;100898.78;5564966;32;34474;-54
2022/12/21 14:59:03;;;;;;;45.05;30.30;;;;;;;5.38;68.78;100891.84;5569545;32;33806;-54
2022/12/21 15:02:25;;;;;;;53.10;32.58;;;;;;;5.65;80.31;100889.50;5569794;32;33804;-54
2022/12/21 15:05:30;;;;;;;54.53;32.08;;;;;;;5.51;73.27;100882.03;5569717;32;33743;-54
2022/12/21 15:08:45;;;;;;;48.45;32.13;;;;;;;5.53;79.28;100882.56;5569409;32;34297;-54
2022/12/21 15:11:50;;;;;;;50.55;33.10;;;;;;;5.78;77.43;100867.16;5569402;32;34348;-54
2022/12/21 15:14:55;;;;;;;52.13;34.55;;;;;;;5.96;67.67;100873.34;5569559;32;33591;-54
2022/12/21 15:18:27;;;;;;;58.00;32.20;;;;;;;5.72;74.85;100869.94;5569401;32;34273;-53
2022/12/21 15:21:44;;;;;;;57.28;33.53;;;;;;;5.86;74.30;100857.97;5567595;32;33435;-54
2022/12/21 15:24:53;;;;;;;48.92;32.63;;;;;;;5.76;71.52;100850.63;5569371;32;34203;-54
2022/12/21 15:28:03;;;;;;;50.63;32.72;;;;;;;5.79;77.98;100857.31;5569014;32;33776;-54
2022/12/21 15:31:19;;;;;;;54.53;33.65;;;;;;;5.71;76.49;100865.69;5568968;32;33753;-54
2022/12/21 15:34:26;;;;;;;50.53;33.65;;;;;;;5.60;72.83;100862.81;5569203;32;33714;-54
2022/12/21 15:37:30;;;;;;;60.10;32.72;;;;;;;5.48;74.45;100872.66;5569171;32;34243;-54
2022/12/21 15:40:37;;;;;;;50.88;33.20;;;;;;;5.26;83.43;100863.66;5569019;32;34912;-54
2022/12/21 15:43:46;;;;;;;53.95;33.38;;;;;;;5.22;69.71;100870.50;5568866;32;34347;-54
2022/12/21 15:46:55;;;;;;;51.10;33.83;;;;;;;5.09;65.34;100859.06;5569009;32;33703;-54
2022/12/21 15:50:07;;;;;;;48.25;33.08;;;;;;;5.30;80.71;100862.97;5569002;32;33907;-54
2022/12/21 15:53:18;;;;;;;55.10;33.58;;;;;;;5.38;71.68;100859.94;5567855;32;34359;-54
2022/12/21 15:56:21;;;;;;;51.50;33.42;;;;;;;5.12;67.92;100855.13;5568835;32;33833;-54
2022/12/21 15:59:29;;;;;;;53.40;33.70;;;;;;;5.19;79.15;100861.94;5568391;32;33393;-54
2022/12/21 16:02:32;;;;;;;50.60;32.65;;;;;;;5.32;77.65;100868.06;5568926;32;33674;-54
2022/12/21 16:05:35;;;;;;;50.65;33.22;;;;;;;5.48;72.12;100863.87;5569100;32;34431;-54
2022/12/21 16:08:39;;;;;;;55.30;34.88;;;;;;;5.37;82.69;100868.19;5569298;32;34222;-54
2022/12/21 16:11:41;;;;;;;57.92;35.38;;;;;;;5.14;69.80;100871.66;5568982;32;33776;-54
2022/12/21 16:15:25;;;;;;;49.42;33.75;;;;;;;5.05;65.06;100879.16;5568727;32;33820;-54
2022/12/21 16:18:36;;;;;;;52.70;33.55;;;;;;;5.22;76.82;100873.97;5568688;32;34352;-54
2022/12/21 16:21:38;;;;;;;51.83;33.20;;;;;;;5.04;76.30;100874.91;5568876;32;34249;-54
2022/12/21 16:24:43;;;;;;;52.13;33.40;;;;;;;4.94;78.23;100879.97;5568965;32;33683;-54
2022/12/21 16:28:15;;;;;;;51.85;34.78;;;;;;;4.82;66.56;100871.19;5568635;32;34124;-54
2022/12/21 16:31:31;;;;;;;54.53;36.05;;;;;;;4.84;65.66;100869.12;5568972;32;33319;-54
2022/12/21 16:34:38;;;;;;;50.47;33.50;;;;;;;5.03;72.29;100864.47;5568701;32;33802;-54
2022/12/21 16:37:40;;;;;;;57.08;36.63;;;;;;;5.19;87.96;100858.47;5568912;32;33664;-54
2022/12/21 16:40:43;;;;;;;54.58;34.70;;;;;;;5.30;66.75;100867.50;5568675;32;33716;-54
2022/12/21 16:44:05;;;;;;;51.88;35.00;;;;;;;5.14;76.68;100867.16;5568793;32;34274;-54
2022/12/21 16:47:17;;;;;;;59.33;35.45;;;;;;;5.58;67.94;100866.75;5562953;32;34305;-54
2022/12/21 16:50:40;;;;;;;62.50;36.20;;;;;;;5.13;64.92;100864.72;5568335;32;33860;-54
2022/12/21 16:53:44;;;;;;;56.03;34.58;;;;;;;4.82;67.01;100868.53;5568365;32;33880;-54
2022/12/21 16:56:55;;;;;;;56.55;34.72;;;;;;;4.65;67.01;100874.50;5568455;32;34292;-54
